Time;durP1;ratioP1;P1;durP2;ratioP2;P2;SDS_P1;SDS_P2;PMS_P1;PMS_P2;Temp;Humidity;BMP_temperature;BMP_pressure;BME280_temperature;BME280_humidity;BME280_pressure;Samples;Min_cycle;Max_cycle;Signal;HPM_P1;HPM_P2
2023/08/17 00:02:13;;;;;;;6.40;2.50;;;22.90;99.90;;;;;;5094946;28;20484;-61
2023/08/17 00:04:40;;;;;;;4.78;2.30;;;22.60;99.90;;;;;;5095292;28;20044;-61
2023/08/17 00:07:06;;;;;;;4.53;2.60;;;22.50;99.90;;;;;;5095445;28;20021;-62
2023/08/17 00:09:32;;;;;;;10.27;2.60;;;22.30;99.90;;;;;;5095144;28;20109;-61
2023/08/17 00:11:58;;;;;;;5.78;2.60;;;22.30;99.90;;;;;;5095238;28;20024;-62
2023/08/17 00:14:24;;;;;;;7.88;2.50;;;22.20;99.90;;;;;;5095058;28;20068;-61
2023/08/17 00:16:50;;;;;;;8.95;2.88;;;22.10;99.90;;;;;;5095000;28;20066;-62
2023/08/17 00:19:16;;;;;;;4.57;2.40;;;22.00;99.90;;;;;;5094854;28;20026;-62
2023/08/17 00:21:42;;;;;;;6.03;2.55;;;22.00;99.90;;;;;;5094908;28;20107;-62
2023/08/17 00:24:08;;;;;;;6.32;3.13;;;22.00;99.90;;;;;;5095003;28;20539;-62
2023/08/17 00:26:33;;;;;;;5.72;2.50;;;22.00;99.90;;;;;;5094903;28;20044;-62
2023/08/17 00:28:59;;;;;;;6.95;2.70;;;21.90;99.90;;;;;;5094592;28;20032;-62
2023/08/17 00:31:25;;;;;;;4.80;2.47;;;21.90;99.90;;;;;;5094368;28;20078;-62
2023/08/17 00:33:50;;;;;;;5.53;2.70;;;21.80;99.90;;;;;;5095010;28;20020;-62
2023/08/17 00:36:16;;;;;;;8.60;2.80;;;21.80;99.90;;;;;;5094826;28;20503;-61
2023/08/17 00:38:42;;;;;;;6.22;2.25;;;21.80;99.90;;;;;;5094595;28;20502;-61
2023/08/17 00:41:07;;;;;;;5.68;2.92;;;21.80;99.90;;;;;;5094662;28;20012;-61
2023/08/17 00:43:33;;;;;;;5.88;2.40;;;22.00;99.90;;;;;;5094791;28;20552;-61
2023/08/17 00:45:59;;;;;;;3.50;2.05;;;22.30;99.90;;;;;;5076014;28;20081;-61
2023/08/17 00:48:28;;;;;;;5.85;2.45;;;22.40;99.90;;;;;;5094407;28;20498;-62
2023/08/17 00:50:55;;;;;;;4.95;2.65;;;22.40;99.90;;;;;;5094339;28;20043;-61
2023/08/17 00:53:22;;;;;;;4.40;2.60;;;22.50;99.90;;;;;;5094321;28;20021;-61
2023/08/17 00:55:48;;;;;;;3.42;2.20;;;22.60;99.90;;;;;;5094384;28;20066;-60
2023/08/17 00:58:14;;;;;;;5.75;2.65;;;22.70;99.90;;;;;;5094238;28;20031;-61
2023/08/17 01:00:40;;;;;;;4.63;2.30;;;22.60;99.90;;;;;;5093805;28;20024;-62
2023/08/17 01:03:06;;;;;;;6.57;2.47;;;22.60;99.90;;;;;;5094147;28;20016;-62
2023/08/17 01:05:32;;;;;;;4.72;2.28;;;22.60;99.90;;;;;;5094051;28;20024;-61
2023/08/17 01:07:59;;;;;;;4.57;2.50;;;22.70;99.90;;;;;;5094159;28;20480;-61
2023/08/17 01:10:34;;;;;;;6.65;2.45;;;22.70;99.90;;;;;;5094407;28;20031;-61
2023/08/17 01:13:09;;;;;;;7.95;2.38;;;22.70;99.90;;;;;;5075069;28;20042;-61
2023/08/17 01:15:36;;;;;;;3.60;2.30;;;22.70;99.90;;;;;;5093533;28;20035;-61
2023/08/17 01:18:44;;;;;;;3.97;2.20;;;22.70;99.90;;;;;;5094024;28;20039;-62
2023/08/17 01:21:13;;;;;;;3.53;2.10;;;22.50;99.90;;;;;;5073540;28;20389;-61
2023/08/17 01:23:39;;;;;;;5.72;2.33;;;22.40;99.90;;;;;;5055961;28;20115;-62
2023/08/17 01:26:04;;;;;;;4.18;2.03;;;22.30;99.90;;;;;;5073173;28;20123;-62
2023/08/17 01:28:30;;;;;;;4.75;2.28;;;22.20;99.90;;;;;;5073120;28;20094;-61
2023/08/17 01:31:33;;;;;;;3.97;2.00;;;22.00;99.90;;;;;;5073529;28;20025;-61
2023/08/17 01:34:05;;;;;;;3.50;1.85;;;22.00;99.90;;;;;;5056304;28;20071;-61
2023/08/17 01:36:41;;;;;;;4.80;2.10;;;21.90;99.90;;;;;;5073479;28;20025;-62
2023/08/17 01:39:08;;;;;;;6.25;2.45;;;21.80;99.90;;;;;;5073258;28;20036;-61
2023/08/17 01:41:36;;;;;;;3.05;2.10;;;21.70;99.90;;;;;;5073080;28;20059;-62
2023/08/17 01:44:02;;;;;;;5.22;2.20;;;21.70;99.90;;;;;;5073194;28;20051;-62
2023/08/17 01:46:33;;;;;;;3.25;2.22;;;21.60;99.90;;;;;;5073098;28;20020;-62
2023/08/17 01:48:59;;;;;;;3.30;2.03;;;21.70;99.90;;;;;;5073077;28;20491;-62
2023/08/17 01:51:25;;;;;;;3.20;2.00;;;21.70;99.90;;;;;;5072969;28;20048;-61
2023/08/17 01:53:51;;;;;;;3.38;2.00;;;21.60;99.90;;;;;;5072945;28;20021;-62
2023/08/17 01:56:17;;;;;;;3.90;1.80;;;21.60;99.90;;;;;;5073120;28;20032;-62
2023/08/17 01:58:43;;;;;;;5.38;2.30;;;21.60;99.90;;;;;;5072533;28;20100;-61
2023/08/17 02:01:09;;;;;;;3.65;1.77;;;21.70;99.90;;;;;;5072886;28;20059;-62
2023/08/17 02:03:35;;;;;;;3.65;1.80;;;21.90;99.90;;;;;;5054740;28;20063;-61
2023/08/17 02:06:01;;;;;;;3.00;1.67;;;22.00;99.90;;;;;;5073045;28;20025;-61
2023/08/17 02:08:26;;;;;;;3.63;1.85;;;22.10;99.90;;;;;;5072511;28;20037;-61
2023/08/17 02:10:52;;;;;;;3.33;1.67;;;22.10;99.90;;;;;;5072550;28;20033;-62
2023/08/17 02:13:18;;;;;;;2.42;1.75;;;22.20;99.90;;;;;;5072297;28;20390;-62
2023/08/17 02:15:44;;;;;;;3.60;1.42;;;22.30;99.90;;;;;;5090091;28;20032;-61
2023/08/17 02:18:10;;;;;;;2.40;1.50;;;22.20;99.90;;;;;;5092729;28;20081;-61
2023/08/17 02:20:35;;;;;;;2.92;1.70;;;22.20;99.90;;;;;;5092962;28;20032;-62
2023/08/17 02:23:01;;;;;;;3.55;1.70;;;22.20;99.90;;;;;;5092393;28;20028;-61
2023/08/17 02:25:34;;;;;;;3.83;1.92;;;22.20;99.90;;;;;;5092349;28;20035;-61
2023/08/17 02:28:03;;;;;;;2.92;1.90;;;22.10;99.90;;;;;;5092274;28;20499;-61
2023/08/17 02:30:29;;;;;;;3.75;1.90;;;22.10;99.90;;;;;;5092872;28;20112;-61
2023/08/17 02:32:55;;;;;;;4.05;2.20;;;22.00;99.90;;;;;;5092429;28;20532;-62
2023/08/17 02:35:20;;;;;;;4.38;2.20;;;22.00;99.90;;;;;;5092333;28;20024;-62
2023/08/17 02:37:46;;;;;;;5.22;2.03;;;21.80;99.90;;;;;;5092253;28;20101;-61
2023/08/17 02:40:12;;;;;;;3.42;2.05;;;21.60;99.90;;;;;;5092010;28;20024;-61
2023/08/17 02:42:39;;;;;;;3.30;2.30;;;21.40;99.90;;;;;;5092231;28;20039;-62
2023/08/17 02:45:06;;;;;;;4.30;2.40;;;21.30;99.90;;;;;;5092125;28;20032;-61
2023/08/17 02:47:32;;;;;;;3.35;2.42;;;21.20;99.90;;;;;;5092041;28;20036;-62
2023/08/17 02:49:57;;;;;;;3.47;2.33;;;21.10;99.90;;;;;;5092469;28;20028;-62
2023/08/17 02:52:23;;;;;;;2.47;2.25;;;21.10;99.90;;;;;;5073918;28;20055;-61
2023/08/17 02:54:49;;;;;;;3.90;2.58;;;21.00;99.90;;;;;;5091693;28;20027;-61
2023/08/17 02:57:14;;;;;;;5.05;2.50;;;20.90;99.90;;;;;;5091998;28;20031;-61
2023/08/17 02:59:40;;;;;;;3.05;2.20;;;20.90;99.90;;;;;;5091934;28;20145;-61
2023/08/17 03:02:06;;;;;;;3.63;2.40;;;20.90;99.90;;;;;;5091952;28;20032;-61
2023/08/17 03:04:32;;;;;;;4.53;2.65;;;20.90;99.90;;;;;;5091874;28;20107;-62
2023/08/17 03:06:58;;;;;;;4.07;2.40;;;20.90;99.90;;;;;;5091994;28;20036;-62
2023/08/17 03:09:23;;;;;;;4.75;2.10;;;20.80;99.90;;;;;;5091407;28;20031;-62
2023/08/17 03:11:49;;;;;;;3.53;2.20;;;20.90;99.90;;;;;;5091780;28;20056;-61
2023/08/17 03:14:15;;;;;;;3.88;2.30;;;20.80;99.90;;;;;;5091935;28;20024;-62
2023/08/17 03:16:40;;;;;;;4.47;2.33;;;20.90;99.90;;;;;;5091617;28;20570;-61
2023/08/17 03:19:07;;;;;;;4.72;2.40;;;20.90;99.90;;;;;;5091481;28;20182;-60
2023/08/17 03:21:34;;;;;;;3.72;2.30;;;21.20;99.90;;;;;;5091493;28;20400;-62
2023/08/17 03:23:59;;;;;;;3.50;2.10;;;21.30;99.90;;;;;;5091196;28;20103;-61
2023/08/17 03:26:25;;;;;;;5.45;2.65;;;21.50;99.90;;;;;;5091540;28;20146;-61
2023/08/17 03:28:51;;;;;;;3.28;2.13;;;21.40;99.90;;;;;;5091538;28;20032;-61
2023/08/17 03:31:16;;;;;;;3.72;2.30;;;21.50;99.90;;;;;;5091334;28;20028;-61
2023/08/17 03:33:43;;;;;;;3.83;2.50;;;21.40;99.90;;;;;;5091581;28;20522;-60
2023/08/17 03:36:08;;;;;;;4.63;2.78;;;21.40;99.90;;;;;;5090937;28;20178;-61
2023/08/17 03:38:34;;;;;;;6.90;2.72;;;21.40;99.90;;;;;;5091174;28;20566;-61
2023/08/17 03:41:01;;;;;;;3.28;2.42;;;21.30;99.90;;;;;;5091497;28;20039;-61
2023/08/17 03:43:27;;;;;;;3.00;2.40;;;21.30;99.90;;;;;;5091641;28;20039;-61
2023/08/17 03:45:52;;;;;;;3.05;2.50;;;21.30;99.90;;;;;;5091328;28;20024;-62
2023/08/17 03:48:18;;;;;;;4.35;2.53;;;21.30;99.90;;;;;;5091232;28;20039;-61
2023/08/17 03:50:44;;;;;;;3.97;2.65;;;21.30;99.90;;;;;;5091128;28;20043;-61
2023/08/17 03:53:09;;;;;;;3.30;2.65;;;21.30;99.90;;;;;;5091279;28;20024;-61
2023/08/17 03:55:35;;;;;;;4.40;2.30;;;21.10;99.90;;;;;;5091164;28;20046;-61
2023/08/17 03:58:01;;;;;;;4.55;2.60;;;21.00;99.90;;;;;;5091280;28;20083;-61
2023/08/17 04:00:26;;;;;;;4.88;2.65;;;20.90;99.90;;;;;;5091179;28;20097;-62
2023/08/17 04:02:52;;;;;;;3.85;2.65;;;20.80;99.90;;;;;;5090898;28;20042;-61
2023/08/17 04:05:18;;;;;;;3.97;3.00;;;20.80;99.90;;;;;;5073184;28;20028;-62
2023/08/17 04:07:43;;;;;;;4.13;3.03;;;20.80;99.90;;;;;;5090688;28;20024;-62
2023/08/17 04:10:09;;;;;;;3.70;2.70;;;20.70;99.90;;;;;;5091057;28;20085;-61
2023/08/17 04:12:35;;;;;;;3.33;2.58;;;20.70;99.90;;;;;;5091542;28;20024;-62
2023/08/17 04:15:00;;;;;;;4.45;2.83;;;20.70;99.90;;;;;;5091099;28;20446;-62
2023/08/17 04:17:26;;;;;;;3.00;2.65;;;20.70;99.90;;;;;;5091062;28;20502;-62
2023/08/17 04:19:52;;;;;;;4.65;2.70;;;20.60;99.90;;;;;;5091263;28;20031;-61
2023/08/17 04:22:18;;;;;;;5.05;3.10;;;20.60;99.90;;;;;;5090485;28;20025;-62
2023/08/17 04:24:43;;;;;;;5.70;3.00;;;20.60;99.90;;;;;;5090849;28;20086;-61
2023/08/17 04:27:09;;;;;;;3.45;2.70;;;20.60;99.90;;;;;;5091169;28;20101;-61
2023/08/17 04:29:36;;;;;;;4.25;3.10;;;20.60;99.90;;;;;;5090864;28;20032;-61
2023/08/17 04:32:01;;;;;;;7.30;3.45;;;20.70;99.90;;;;;;5090563;28;20021;-62
2023/08/17 04:34:27;;;;;;;4.50;2.83;;;20.60;99.90;;;;;;5091004;28;20036;-61
2023/08/17 04:36:53;;;;;;;3.33;2.50;;;20.70;99.90;;;;;;5090507;28;20028;-62
2023/08/17 04:39:18;;;;;;;4.88;2.80;;;20.80;99.90;;;;;;5090926;28;20105;-61
2023/08/17 04:41:44;;;;;;;6.93;2.55;;;21.10;99.90;;;;;;5090681;28;20518;-61
2023/08/17 04:44:10;;;;;;;3.58;2.60;;;21.20;99.90;;;;;;5090943;28;20027;-61
2023/08/17 04:46:36;;;;;;;4.65;2.78;;;21.40;99.90;;;;;;5091463;28;20054;-61
2023/08/17 04:49:02;;;;;;;4.80;2.90;;;21.40;99.90;;;;;;5094500;28;20177;-62
2023/08/17 04:51:27;;;;;;;4.30;3.03;;;21.40;99.90;;;;;;5094098;28;20103;-61
2023/08/17 04:53:53;;;;;;;3.70;2.75;;;21.40;99.90;;;;;;5094320;28;20047;-62
2023/08/17 04:56:19;;;;;;;4.97;2.83;;;21.50;99.90;;;;;;5094342;28;20032;-61
2023/08/17 04:58:44;;;;;;;3.33;2.53;;;21.50;99.90;;;;;;5094275;28;20035;-61
2023/08/17 05:01:10;;;;;;;6.88;3.50;;;21.60;99.90;;;;;;5094291;28;20024;-61
2023/08/17 05:03:36;;;;;;;6.35;3.00;;;21.60;99.90;;;;;;5094114;28;20581;-61
2023/08/17 05:06:02;;;;;;;4.47;2.75;;;21.60;99.90;;;;;;5094094;28;20027;-62
2023/08/17 05:08:27;;;;;;;4.63;2.60;;;21.60;99.90;;;;;;5093954;28;20050;-61
2023/08/17 05:10:53;;;;;;;3.83;2.83;;;21.60;99.90;;;;;;5093963;28;20107;-62
2023/08/17 05:13:19;;;;;;;3.58;2.72;;;21.50;99.90;;;;;;5094388;28;20479;-62
2023/08/17 05:15:45;;;;;;;4.32;2.63;;;21.30;99.90;;;;;;5093778;28;20034;-61
2023/08/17 05:18:10;;;;;;;4.25;2.95;;;21.20;99.90;;;;;;5093745;28;20123;-62
2023/08/17 05:20:36;;;;;;;3.60;2.95;;;21.10;99.90;;;;;;5093372;28;20020;-62
2023/08/17 05:23:02;;;;;;;4.78;3.05;;;21.10;99.90;;;;;;5093753;28;20437;-61
2023/08/17 05:25:29;;;;;;;5.05;3.03;;;21.00;99.90;;;;;;5094000;28;20020;-62
2023/08/17 05:27:55;;;;;;;5.82;3.33;;;20.90;99.90;;;;;;5093640;28;20036;-62
2023/08/17 05:30:20;;;;;;;5.53;3.40;;;20.90;99.90;;;;;;5094010;28;20032;-61
2023/08/17 05:32:46;;;;;;;4.95;3.33;;;20.90;99.90;;;;;;5093432;28;20039;-61
2023/08/17 05:35:12;;;;;;;5.38;3.30;;;21.00;99.90;;;;;;5093214;28;20503;-61
2023/08/17 05:37:37;;;;;;;5.45;3.05;;;21.00;99.90;;;;;;5093551;28;20020;-61
2023/08/17 05:40:04;;;;;;;4.90;3.20;;;21.00;99.90;;;;;;5093409;28;20032;-61
2023/08/17 05:42:30;;;;;;;6.88;3.53;;;21.00;99.90;;;;;;5093822;28;20024;-61
2023/08/17 05:44:56;;;;;;;6.13;3.50;;;21.00;99.90;;;;;;5093250;28;20114;-61
2023/08/17 05:47:21;;;;;;;6.07;3.38;;;21.00;99.90;;;;;;5093273;28;20043;-61
2023/08/17 05:49:47;;;;;;;5.45;3.40;;;21.00;99.90;;;;;;5093307;28;20036;-61
2023/08/17 05:52:13;;;;;;;6.10;3.30;;;21.00;99.90;;;;;;5093202;28;20036;-61
2023/08/17 05:54:39;;;;;;;5.25;3.33;;;21.00;99.90;;;;;;5093376;28;20032;-61
2023/08/17 05:57:05;;;;;;;6.47;3.70;;;21.20;99.90;;;;;;5092715;28;20116;-60
2023/08/17 05:59:31;;;;;;;5.55;3.08;;;21.30;99.90;;;;;;5093130;28;20450;-61
2023/08/17 06:01:56;;;;;;;5.30;3.00;;;21.60;99.90;;;;;;5093055;28;20024;-61
2023/08/17 06:04:22;;;;;;;5.10;3.20;;;21.80;99.90;;;;;;5093089;28;20032;-61
2023/08/17 06:06:48;;;;;;;4.68;2.85;;;21.90;99.90;;;;;;5074694;28;20050;-61
2023/08/17 06:09:14;;;;;;;4.18;3.10;;;21.90;99.90;;;;;;5093054;28;20040;-61
2023/08/17 06:11:40;;;;;;;6.05;3.30;;;21.90;99.90;;;;;;5092868;28;20024;-61
2023/08/17 06:14:06;;;;;;;4.78;3.25;;;21.90;99.90;;;;;;5092693;28;20032;-62
2023/08/17 06:16:32;;;;;;;4.22;2.95;;;21.90;99.90;;;;;;5093020;28;20023;-61
2023/08/17 06:18:58;;;;;;;5.13;3.20;;;22.00;99.90;;;;;;5092266;28;20032;-61
2023/08/17 06:21:23;;;;;;;4.07;3.20;;;21.90;99.90;;;;;;5092588;28;20492;-61
2023/08/17 06:23:49;;;;;;;6.22;3.50;;;21.90;99.90;;;;;;5074442;28;20110;-61
2023/08/17 06:26:15;;;;;;;5.07;3.50;;;21.90;99.90;;;;;;5092354;28;20035;-61
2023/08/17 06:28:40;;;;;;;4.45;3.28;;;22.00;99.90;;;;;;5092468;28;20036;-62
2023/08/17 06:31:06;;;;;;;7.38;3.63;;;21.90;99.90;;;;;;5092398;28;20019;-61
2023/08/17 06:33:32;;;;;;;5.57;3.60;;;21.70;99.90;;;;;;5092442;28;20036;-61
2023/08/17 06:35:58;;;;;;;5.30;3.50;;;21.70;99.90;;;;;;5092314;28;20488;-61
2023/08/17 06:38:23;;;;;;;4.70;3.35;;;21.60;99.90;;;;;;5092302;28;20463;-61
2023/08/17 06:40:52;;;;;;;5.50;3.60;;;21.60;99.90;;;;;;5092238;28;20084;-60
2023/08/17 06:43:18;;;;;;;4.80;3.60;;;21.60;99.90;;;;;;5092214;28;20020;-61
2023/08/17 06:45:44;;;;;;;4.95;3.80;;;21.60;99.90;;;;;;5092277;28;20024;-61
2023/08/17 06:48:09;;;;;;;7.75;3.92;;;21.70;99.90;;;;;;5091574;28;20032;-61
2023/08/17 06:50:35;;;;;;;5.63;3.95;;;21.70;99.90;;;;;;5092255;28;20020;-61
2023/08/17 06:53:02;;;;;;;5.65;3.90;;;21.70;99.90;;;;;;5092066;28;20032;-61
2023/08/17 06:55:28;;;;;;;6.32;3.83;;;21.70;99.90;;;;;;5091986;28;20023;-61
2023/08/17 06:57:54;;;;;;;5.57;3.55;;;21.80;99.90;;;;;;5092421;28;20032;-61
2023/08/17 07:00:20;;;;;;;6.50;3.50;;;21.80;99.90;;;;;;5091884;28;20032;-61
2023/08/17 07:02:50;;;;;;;6.00;3.60;;;21.90;99.90;;;;;;5091568;28;20386;-61
2023/08/17 07:05:16;;;;;;;4.53;3.75;;;21.90;99.90;;;;;;5091860;28;20024;-61
2023/08/17 07:07:45;;;;;;;5.20;3.45;;;21.90;99.90;;;;;;5092064;28;20035;-62
2023/08/17 07:10:11;;;;;;;6.18;3.67;;;22.00;99.90;;;;;;5091102;28;20020;-61
2023/08/17 07:12:39;;;;;;;4.45;3.72;;;22.00;99.90;;;;;;5073642;28;20031;-61
2023/08/17 07:15:07;;;;;;;5.25;3.63;;;22.10;99.90;;;;;;5091337;28;20024;-61
2023/08/17 07:17:34;;;;;;;5.65;3.42;;;22.30;99.90;;;;;;5091407;28;20020;-61
2023/08/17 07:20:00;;;;;;;4.55;3.30;;;22.50;99.90;;;;;;5091471;28;20028;-61
2023/08/17 07:22:25;;;;;;;4.72;3.08;;;22.90;99.90;;;;;;5091548;28;20031;-61
2023/08/17 07:24:51;;;;;;;4.43;2.60;;;23.00;99.90;;;;;;5091360;28;20107;-61
2023/08/17 07:27:16;;;;;;;5.22;2.63;;;23.10;99.90;;;;;;5091316;28;20044;-61
2023/08/17 07:29:44;;;;;;;3.67;2.70;;;23.20;99.90;;;;;;5091355;28;20060;-61
2023/08/17 07:32:09;;;;;;;5.78;2.78;;;23.20;99.90;;;;;;5091122;28;20043;-61
2023/08/17 07:34:36;;;;;;;3.97;2.40;;;23.40;99.90;;;;;;5091456;28;20032;-61
2023/08/17 07:37:04;;;;;;;2.53;2.30;;;23.50;99.90;;;;;;5091612;28;20036;-62
2023/08/17 07:39:30;;;;;;;5.20;2.30;;;23.50;99.90;;;;;;5091794;28;20034;-61
2023/08/17 07:41:56;;;;;;;3.83;2.40;;;23.50;99.90;;;;;;5091451;28;20411;-61
2023/08/17 07:44:21;;;;;;;2.65;2.40;;;23.50;99.90;;;;;;5091334;28;20540;-62
2023/08/17 07:46:47;;;;;;;4.78;2.45;;;23.50;99.90;;;;;;5091022;28;20024;-61
2023/08/17 07:49:13;;;;;;;3.60;2.33;;;23.50;99.90;;;;;;5091655;28;20039;-62
2023/08/17 07:51:38;;;;;;;4.13;2.40;;;23.40;99.90;;;;;;5091274;28;20024;-62
2023/08/17 07:54:04;;;;;;;5.28;2.72;;;23.30;99.90;;;;;;5091215;28;20036;-61
2023/08/17 07:56:30;;;;;;;3.92;2.10;;;23.20;99.90;;;;;;5091230;28;20027;-61
2023/08/17 07:58:56;;;;;;;2.88;2.10;;;23.10;99.90;;;;;;5091124;28;20081;-61
2023/08/17 08:01:22;;;;;;;2.45;2.13;;;22.90;99.90;;;;;;5090901;28;20036;-61
2023/08/17 08:03:48;;;;;;;3.20;2.00;;;22.90;99.90;;;;;;5091254;28;20031;-61
2023/08/17 08:06:13;;;;;;;3.35;2.10;;;22.90;99.90;;;;;;5091368;28;20503;-61
2023/08/17 08:08:40;;;;;;;4.95;2.75;;;22.90;99.90;;;;;;5091020;28;20055;-61
2023/08/17 08:11:06;;;;;;;3.35;2.30;;;22.90;99.90;;;;;;5090901;28;20031;-61
2023/08/17 08:13:31;;;;;;;3.45;2.40;;;23.00;99.90;;;;;;5091083;28;20024;-61
2023/08/17 08:15:59;;;;;;;3.50;2.20;;;23.00;99.90;;;;;;5090575;28;20031;-61
2023/08/17 08:18:25;;;;;;;3.75;2.15;;;23.00;99.90;;;;;;5090993;28;20036;-61
2023/08/17 08:20:50;;;;;;;3.78;2.50;;;23.00;99.90;;;;;;5092480;28;20039;-61
2023/08/17 08:23:16;;;;;;;4.97;2.22;;;23.00;99.90;;;;;;5094928;28;20028;-61
2023/08/17 08:25:42;;;;;;;3.30;2.15;;;23.10;99.90;;;;;;5094710;28;20067;-62
2023/08/17 08:28:08;;;;;;;4.10;2.20;;;23.10;99.90;;;;;;5094702;28;20123;-61
2023/08/17 08:30:34;;;;;;;3.05;2.10;;;23.20;99.90;;;;;;5094871;28;20038;-61
2023/08/17 08:33:00;;;;;;;3.28;2.00;;;23.20;99.90;;;;;;5095038;28;20020;-61
2023/08/17 08:35:26;;;;;;;3.88;2.35;;;23.50;99.90;;;;;;5094678;28;20369;-61
2023/08/17 08:37:52;;;;;;;4.93;2.40;;;23.70;99.90;;;;;;5095187;28;20020;-61
2023/08/17 08:40:20;;;;;;;3.72;2.10;;;23.80;99.90;;;;;;5094680;28;20484;-62
2023/08/17 08:42:45;;;;;;;4.07;2.20;;;23.80;99.90;;;;;;5094200;28;20020;-61
2023/08/17 08:45:11;;;;;;;4.65;2.10;;;24.00;99.90;;;;;;5094472;28;20039;-61
2023/08/17 08:47:37;;;;;;;3.53;2.00;;;24.00;99.90;;;;;;5094812;28;20028;-61
2023/08/17 08:50:04;;;;;;;3.03;1.98;;;24.20;99.90;;;;;;5094513;28;20150;-61
2023/08/17 08:52:40;;;;;;;3.97;2.22;;;24.20;99.90;;;;;;5094438;28;20031;-61
2023/08/17 08:55:18;;;;;;;3.78;2.30;;;24.20;99.90;;;;;;5094651;28;20047;-61
2023/08/17 08:57:46;;;;;;;4.20;2.22;;;24.10;99.90;;;;;;5094029;28;20100;-62
2023/08/17 09:00:12;;;;;;;3.53;2.05;;;24.30;99.90;;;;;;5094291;28;20392;-61
2023/08/17 09:02:38;;;;;;;3.33;2.17;;;24.40;99.90;;;;;;5094186;28;20036;-61
2023/08/17 09:05:06;;;;;;;4.72;2.30;;;24.40;99.90;;;;;;5094045;28;20922;-61
2023/08/17 09:07:34;;;;;;;3.25;2.08;;;24.50;99.90;;;;;;5094090;28;20480;-61
2023/08/17 09:10:00;;;;;;;5.03;2.30;;;24.50;99.90;;;;;;5094241;28;20028;-61
2023/08/17 09:12:25;;;;;;;3.10;2.33;;;24.50;99.90;;;;;;5093700;28;20035;-61
2023/08/17 09:14:52;;;;;;;3.10;2.28;;;24.40;99.90;;;;;;5075697;28;20024;-62
2023/08/17 09:17:27;;;;;;;4.45;2.60;;;24.40;99.90;;;;;;5094369;28;20028;-61
2023/08/17 09:19:54;;;;;;;4.18;2.30;;;24.40;99.90;;;;;;5093901;28;20031;-61
2023/08/17 09:22:24;;;;;;;2.38;2.10;;;24.40;99.90;;;;;;5093725;28;20016;-62
2023/08/17 09:24:50;;;;;;;4.10;2.60;;;24.40;99.90;;;;;;5093698;28;20507;-61
2023/08/17 09:27:16;;;;;;;3.65;2.53;;;24.40;99.90;;;;;;5093603;28;20516;-61
2023/08/17 09:29:45;;;;;;;3.20;2.35;;;24.40;99.90;;;;;;5093798;28;20036;-61
2023/08/17 09:32:14;;;;;;;3.17;2.20;;;24.40;99.90;;;;;;5092864;28;20031;-61
2023/08/17 09:34:42;;;;;;;6.22;2.60;;;24.50;99.90;;;;;;5093553;28;20543;-61
2023/08/17 09:37:08;;;;;;;4.43;2.53;;;24.50;99.90;;;;;;5094230;28;20426;-61
2023/08/17 09:39:33;;;;;;;3.35;2.50;;;24.60;99.90;;;;;;5093497;28;20032;-61
2023/08/17 09:42:00;;;;;;;3.55;2.53;;;24.60;99.90;;;;;;5093169;28;20119;-61
2023/08/17 09:44:26;;;;;;;3.00;2.17;;;24.70;99.90;;;;;;5093460;28;20031;-61
2023/08/17 09:46:56;;;;;;;3.83;2.40;;;24.80;99.90;;;;;;5093592;28;20040;-61
2023/08/17 09:49:24;;;;;;;3.85;2.50;;;25.00;99.90;;;;;;5093352;28;20028;-61
2023/08/17 09:51:52;;;;;;;5.60;3.25;;;25.10;99.90;;;;;;5093349;28;20020;-62
2023/08/17 09:54:31;;;;;;;6.45;2.90;;;25.20;99.90;;;;;;5093457;28;20032;-61
2023/08/17 09:57:01;;;;;;;3.40;2.53;;;25.30;99.90;;;;;;5092825;28;20052;-61
2023/08/17 09:59:27;;;;;;;6.15;3.33;;;25.40;99.90;;;;;;5093089;28;20024;-62
2023/08/17 10:01:53;;;;;;;4.65;2.53;;;25.70;99.90;;;;;;5093088;28;20036;-61
2023/08/17 10:04:23;;;;;;;6.85;2.70;;;25.80;99.90;;;;;;5092988;28;20111;-61
2023/08/17 10:06:53;;;;;;;6.90;2.70;;;25.90;99.90;;;;;;5093566;28;20395;-61
2023/08/17 10:09:27;;;;;;;4.63;3.00;;;25.90;99.90;;;;;;5092879;28;20048;-61
2023/08/17 10:11:57;;;;;;;4.07;2.80;;;26.00;99.90;;;;;;5092634;28;20028;-62
2023/08/17 10:14:33;;;;;;;4.70;3.03;;;26.10;99.90;;;;;;5074492;28;20055;-61
2023/08/17 10:17:10;;;;;;;4.55;2.85;;;26.10;99.90;;;;;;5092773;28;20024;-62
2023/08/17 10:19:41;;;;;;;5.28;3.03;;;26.10;99.90;;;;;;5092627;28;20027;-61
2023/08/17 10:22:18;;;;;;;5.00;2.92;;;26.10;99.90;;;;;;5092470;28;20031;-61
2023/08/17 10:24:45;;;;;;;5.75;2.90;;;26.20;99.90;;;;;;5092580;28;20449;-61
2023/08/17 10:27:11;;;;;;;4.38;3.28;;;26.30;99.90;;;;;;5092482;28;20040;-61
2023/08/17 10:29:39;;;;;;;4.95;3.45;;;26.40;99.90;;;;;;5092546;28;19923;-62
2023/08/17 10:32:07;;;;;;;4.85;3.53;;;26.50;99.90;;;;;;5092801;28;20031;-61
2023/08/17 10:34:34;;;;;;;4.43;3.40;;;26.40;99.90;;;;;;5092429;28;20056;-61
2023/08/17 10:37:01;;;;;;;5.85;3.38;;;26.20;99.90;;;;;;5092314;28;20027;-61
2023/08/17 10:39:28;;;;;;;8.95;3.65;;;26.20;99.90;;;;;;5091971;28;20480;-61
2023/08/17 10:41:55;;;;;;;4.57;3.97;;;26.30;99.90;;;;;;5092336;28;20099;-61
2023/08/17 10:44:48;;;;;;;6.88;4.05;;;26.20;99.90;;;;;;5091693;28;20476;-61
2023/08/17 10:47:28;;;;;;;9.57;7.70;;;26.20;99.90;;;;;;5092216;28;20020;-61
2023/08/17 10:49:56;;;;;;;10.18;7.60;;;26.50;99.90;;;;;;5092213;28;20032;-62
2023/08/17 10:52:26;;;;;;;6.20;4.68;;;26.70;99.90;;;;;;5091983;28;20024;-62
2023/08/17 10:54:53;;;;;;;6.38;4.00;;;26.60;99.90;;;;;;5092066;28;20053;-61
2023/08/17 10:57:30;;;;;;;5.55;3.53;;;26.90;99.90;;;;;;5092001;28;20031;-61
2023/08/17 11:00:13;;;;;;;9.00;8.10;;;27.30;99.90;;;;;;5091995;28;20111;-62
2023/08/17 11:02:39;;;;;;;;;;;27.60;99.90;;;;;;5092301;28;20032;-61
2023/08/17 11:05:07;;;;;;;7.25;6.22;;;27.60;99.90;;;;;;5091751;28;19904;-61
2023/08/17 11:07:43;;;;;;;9.07;8.18;;;27.80;99.90;;;;;;5091574;28;20035;-61
2023/08/17 11:10:31;;;;;;;8.15;6.90;;;28.00;99.90;;;;;;5092130;28;20040;-61
2023/08/17 11:13:01;;;;;;;5.28;4.30;;;28.20;99.90;;;;;;5092177;28;20020;-61
2023/08/17 11:15:44;;;;;;;5.70;4.10;;;28.30;99.90;;;;;;5091626;28;20064;-61
2023/08/17 11:18:11;;;;;;;5.50;3.20;;;28.50;99.90;;;;;;5091992;28;20028;-61
2023/08/17 11:20:40;;;;;;;3.35;3.03;;;28.60;99.90;;;;;;5091508;28;20024;-61
2023/08/17 11:23:07;;;;;;;4.22;3.40;;;28.80;99.90;;;;;;5091477;28;20034;-61
2023/08/17 11:25:34;;;;;;;6.40;3.33;;;29.00;99.90;;;;;;5091356;28;20043;-61
2023/08/17 11:28:01;;;;;;;5.50;3.13;;;29.20;99.90;;;;;;5091820;28;20115;-61
2023/08/17 11:30:28;;;;;;;4.50;3.13;;;29.20;99.90;;;;;;5091655;28;20076;-62
2023/08/17 11:32:55;;;;;;;4.32;3.00;;;29.30;99.90;;;;;;5091549;28;20049;-61
2023/08/17 11:35:21;;;;;;;7.90;3.90;;;29.30;99.90;;;;;;5091334;28;20035;-62
2023/08/17 11:37:51;;;;;;;5.53;3.63;;;29.50;99.90;;;;;;5091281;28;20407;-62
2023/08/17 11:40:17;;;;;;;4.30;3.53;;;29.50;99.90;;;;;;5091380;28;20032;-62
2023/08/17 11:42:44;;;;;;;6.15;3.28;;;29.50;99.90;;;;;;5073772;28;20048;-61
2023/08/17 11:45:10;;;;;;;5.10;3.13;;;29.70;99.90;;;;;;5091184;28;20035;-61
2023/08/17 11:47:39;;;;;;;4.32;3.53;;;29.70;99.90;;;;;;5091468;28;20464;-62
2023/08/17 11:50:08;;;;;;;5.63;3.42;;;29.80;99.90;;;;;;5091197;28;20103;-61
2023/08/17 11:52:34;;;;;;;6.05;3.83;;;29.90;99.90;;;;;;5091090;28;20057;-61
2023/08/17 11:55:00;;;;;;;4.00;3.50;;;30.00;99.90;;;;;;5091441;28;20082;-61
2023/08/17 11:57:26;;;;;;;4.43;3.42;;;30.00;99.90;;;;;;5095219;28;20020;-61
2023/08/17 11:59:56;;;;;;;3.88;3.47;;;30.00;99.90;;;;;;5095472;28;20039;-61
2023/08/17 12:02:23;;;;;;;4.20;3.55;;;30.00;99.90;;;;;;5095484;28;20516;-62
2023/08/17 12:04:49;;;;;;;5.30;3.10;;;29.90;99.90;;;;;;5095169;28;20031;-62
2023/08/17 12:07:16;;;;;;;4.13;3.50;;;29.70;99.90;;;;;;5095311;28;20099;-62
2023/08/17 12:09:44;;;;;;;4.28;3.35;;;29.80;99.90;;;;;;5095357;28;20059;-61
2023/08/17 12:12:10;;;;;;;5.65;3.45;;;29.90;99.90;;;;;;5095114;28;20028;-62
2023/08/17 12:14:36;;;;;;;4.32;3.40;;;29.90;99.90;;;;;;5095478;28;20055;-62
2023/08/17 12:17:02;;;;;;;4.05;3.65;;;30.00;99.90;;;;;;5095229;28;20082;-61
2023/08/17 12:19:29;;;;;;;5.57;3.40;;;30.00;99.90;;;;;;5076919;28;20023;-61
2023/08/17 12:21:56;;;;;;;4.45;3.45;;;30.10;99.90;;;;;;5094774;28;20032;-61
2023/08/17 12:24:24;;;;;;;5.55;3.72;;;30.20;99.90;;;;;;5095327;28;20017;-62
2023/08/17 12:26:50;;;;;;;7.07;3.63;;;30.40;99.90;;;;;;5094859;28;20072;-62
2023/08/17 12:29:15;;;;;;;4.18;3.78;;;30.40;99.90;;;;;;5094670;28;20129;-61
2023/08/17 12:31:41;;;;;;;5.15;3.70;;;30.40;99.90;;;;;;5094670;28;20035;-61
2023/08/17 12:34:07;;;;;;;4.03;3.65;;;30.40;99.90;;;;;;5094905;28;20024;-61
2023/08/17 12:36:35;;;;;;;4.53;4.05;;;30.40;99.90;;;;;;5094445;28;20028;-61
2023/08/17 12:39:01;;;;;;;5.57;3.15;;;30.60;99.90;;;;;;5094708;28;20601;-61
2023/08/17 12:41:26;;;;;;;5.88;3.28;;;30.40;99.90;;;;;;5094663;28;20095;-61
2023/08/17 12:43:53;;;;;;;6.45;3.20;;;30.10;99.90;;;;;;5094956;28;20028;-62
2023/08/17 12:46:20;;;;;;;4.53;2.90;;;29.90;99.90;;;;;;5094744;28;20099;-61
2023/08/17 12:48:45;;;;;;;5.90;3.40;;;29.70;99.90;;;;;;5094305;28;20218;-61